Time;durP1;ratioP1;P1;durP2;ratioP2;P2;SDS_P1;SDS_P2;PMS_P1;PMS_P2;Temp;Humidity;BMP_temperature;BMP_pressure;BME280_temperature;BME280_humidity;BME280_pressure;Samples;Min_cycle;Max_cycle;Signal;HPM_P1;HPM_P2
2023/12/11 00:00:37;;;;;;;32.45;4.80;;;;;;;;;;5016888;28;20470;-79
2023/12/11 00:03:03;;;;;;;47.67;5.28;;;;;;;;;;5018964;28;20049;-80
2023/12/11 00:05:29;;;;;;;41.95;5.05;;;;;;;;;;5011522;28;20033;-79
2023/12/11 00:07:55;;;;;;;35.63;4.30;;;;;;;;;;5028934;28;20022;-79
2023/12/11 00:10:21;;;;;;;53.88;5.30;;;;;;;;;;5027823;28;20462;-79
2023/12/11 00:12:47;;;;;;;47.83;5.13;;;;;;;;;;5027984;28;20032;-79
2023/12/11 00:15:13;;;;;;;54.55;5.28;;;;;;;;;;5027774;28;20014;-79
2023/12/11 00:17:39;;;;;;;46.10;5.82;;;;;;;;;;5027685;28;20079;-79
2023/12/11 00:20:05;;;;;;;52.50;4.45;;;;;;;;;;5027967;28;20028;-80
2023/12/11 00:22:31;;;;;;;51.30;5.13;;;;;;;;;;5014580;28;20376;-80
2023/12/11 00:24:57;;;;;;;38.88;5.07;;;;;;;;;;5007942;28;20022;-79
2023/12/11 00:27:23;;;;;;;39.53;5.15;;;;;;;;;;5020960;28;20022;-80
2023/12/11 00:29:49;;;;;;;43.60;4.20;;;;;;;;;;5027633;28;20039;-79
2023/12/11 00:32:15;;;;;;;36.67;4.70;;;;;;;;;;5027443;28;20014;-79
2023/12/11 00:34:41;;;;;;;38.13;4.47;;;;;;;;;;5027653;28;20084;-79
2023/12/11 00:37:07;;;;;;;46.80;4.25;;;;;;;;;;5019311;28;20045;-79
2023/12/11 00:39:33;;;;;;;44.53;4.30;;;;;;;;;;5009072;28;20044;-79
2023/12/11 00:41:59;;;;;;;50.05;5.60;;;;;;;;;;5013246;28;20022;-79
2023/12/11 00:44:25;;;;;;;45.40;4.63;;;;;;;;;;5028500;28;20053;-79
2023/12/11 00:46:51;;;;;;;47.30;5.50;;;;;;;;;;5024401;28;20017;-79
2023/12/11 00:49:17;;;;;;;42.85;5.97;;;;;;;;;;5008773;28;20080;-79
2023/12/11 00:51:43;;;;;;;49.35;5.03;;;;;;;;;;5009461;28;20018;-80
2023/12/11 00:54:09;;;;;;;36.45;4.25;;;;;;;;;;5027117;28;20028;-80
2023/12/11 00:56:35;;;;;;;41.78;6.32;;;;;;;;;;5028539;28;20033;-80
2023/12/11 00:59:01;;;;;;;38.13;4.40;;;;;;;;;;5007456;28;20026;-79
2023/12/11 01:01:27;;;;;;;45.20;5.78;;;;;;;;;;5008173;28;20049;-80
2023/12/11 01:03:53;;;;;;;42.95;4.75;;;;;;;;;;5012800;28;20095;-79
2023/12/11 01:06:19;;;;;;;36.10;4.55;;;;;;;;;;5026893;28;20493;-79
2023/12/11 01:08:45;;;;;;;40.67;4.43;;;;;;;;;;5026804;28;20797;-80
2023/12/11 01:11:11;;;;;;;40.08;4.65;;;;;;;;;;5027218;28;20014;-79
2023/12/11 01:13:38;;;;;;;45.67;4.90;;;;;;;;;;5014626;28;20058;-79
2023/12/11 01:16:04;;;;;;;39.22;4.35;;;;;;;;;;5007394;28;20332;-79
2023/12/11 01:18:30;;;;;;;27.02;3.25;;;;;;;;;;5017936;28;20044;-79
2023/12/11 01:20:56;;;;;;;39.15;4.50;;;;;;;;;;5027067;28;20022;-79
2023/12/11 01:23:22;;;;;;;48.83;4.82;;;;;;;;;;5019295;28;20075;-79
2023/12/11 01:25:48;;;;;;;32.40;4.03;;;;;;;;;;5007683;28;20373;-79
2023/12/11 01:28:14;;;;;;;37.50;4.50;;;;;;;;;;5014682;28;20014;-79
2023/12/11 01:30:40;;;;;;;40.53;4.50;;;;;;;;;;5026863;28;20177;-79
2023/12/11 01:33:06;;;;;;;35.05;4.05;;;;;;;;;;5028251;28;20225;-79
2023/12/11 01:35:36;;;;;;;48.75;4.40;;;;;;;;;;5019544;28;20039;-79
2023/12/11 01:38:02;;;;;;;40.15;3.88;;;;;;;;;;5028039;28;20377;-79
2023/12/11 01:40:28;;;;;;;33.60;4.07;;;;;;;;;;5028072;28;20484;-79
2023/12/11 01:42:54;;;;;;;48.13;5.15;;;;;;;;;;5023205;28;20537;-79
2023/12/11 01:45:20;;;;;;;41.83;4.90;;;;;;;;;;5010643;28;20030;-79
2023/12/11 01:47:46;;;;;;;43.78;4.65;;;;;;;;;;5012777;28;20068;-79
2023/12/11 01:50:12;;;;;;;49.22;4.85;;;;;;;;;;5031474;28;20017;-79
2023/12/11 01:52:38;;;;;;;50.17;4.55;;;;;;;;;;5031087;28;20056;-79
2023/12/11 01:55:05;;;;;;;37.03;3.72;;;;;;;;;;5010588;28;20113;-80
2023/12/11 01:57:32;;;;;;;38.88;4.90;;;;;;;;;;5010918;28;20014;-79
2023/12/11 01:59:58;;;;;;;43.47;5.60;;;;;;;;;;5029649;28;20029;-79
2023/12/11 02:02:25;;;;;;;45.80;4.38;;;;;;;;;;5024404;28;20088;-79
2023/12/11 02:04:53;;;;;;;49.80;5.45;;;;;;;;;;5029326;28;20116;-80
2023/12/11 02:07:19;;;;;;;45.83;4.53;;;;;;;;;;5031149;28;20037;-79
2023/12/11 02:09:45;;;;;;;40.08;4.45;;;;;;;;;;5012935;28;20026;-79
2023/12/11 02:12:12;;;;;;;48.08;5.97;;;;;;;;;;5026872;28;20013;-79
2023/12/11 02:14:38;;;;;;;46.15;5.97;;;;;;;;;;5029907;28;20076;-80
2023/12/11 02:17:04;;;;;;;50.58;5.25;;;;;;;;;;5029743;28;20041;-79
2023/12/11 02:19:31;;;;;;;37.45;4.03;;;;;;;;;;5029939;28;20541;-80
2023/12/11 02:21:57;;;;;;;43.13;5.05;;;;;;;;;;5029898;28;20591;-79
2023/12/11 02:24:27;;;;;;;45.72;5.35;;;;;;;;;;5017316;28;20121;-80
2023/12/11 02:26:53;;;;;;;48.55;5.68;;;;;;;;;;5012176;28;20083;-81
2023/12/11 02:29:20;;;;;;;50.22;6.50;;;;;;;;;;5014201;28;20016;-79
2023/12/11 02:31:46;;;;;;;53.42;6.97;;;;;;;;;;5010577;28;20026;-79
2023/12/11 02:34:12;;;;;;;45.90;5.85;;;;;;;;;;5018782;28;20210;-80
2023/12/11 02:36:38;;;;;;;52.60;5.20;;;;;;;;;;5024214;28;20068;-80
2023/12/11 02:39:04;;;;;;;42.55;5.80;;;;;;;;;;5009759;28;20072;-79
2023/12/11 02:41:30;;;;;;;48.25;5.32;;;;;;;;;;5009604;28;20021;-79
2023/12/11 02:43:56;;;;;;;51.70;5.47;;;;;;;;;;5016348;28;20492;-79
2023/12/11 02:46:22;;;;;;;59.63;7.28;;;;;;;;;;5029271;28;20060;-80
2023/12/11 02:48:48;;;;;;;51.20;5.03;;;;;;;;;;5029519;28;20018;-79
2023/12/11 02:51:15;;;;;;;52.80;6.05;;;;;;;;;;5030316;28;20017;-79
2023/12/11 02:53:41;;;;;;;43.72;4.55;;;;;;;;;;5028714;28;20021;-79
2023/12/11 02:56:08;;;;;;;49.17;4.68;;;;;;;;;;5010226;28;20540;-79
2023/12/11 02:58:34;;;;;;;43.83;6.00;;;;;;;;;;5012866;28;20469;-80
2023/12/11 03:01:00;;;;;;;48.45;4.47;;;;;;;;;;5027989;28;20018;-80
2023/12/11 03:03:26;;;;;;;51.97;6.13;;;;;;;;;;5024495;28;20386;-79
2023/12/11 03:05:52;;;;;;;53.33;6.20;;;;;;;;;;5029540;28;20014;-79
2023/12/11 03:08:18;;;;;;;41.92;4.78;;;;;;;;;;5030016;28;20104;-79
2023/12/11 03:10:44;;;;;;;56.67;5.85;;;;;;;;;;5013427;28;20117;-79
2023/12/11 03:13:10;;;;;;;47.80;5.10;;;;;;;;;;5008932;28;20013;-79
2023/12/11 03:15:36;;;;;;;47.88;5.43;;;;;;;;;;5015123;28;20114;-79
2023/12/11 03:18:02;;;;;;;48.17;5.78;;;;;;;;;;5008786;28;20053;-79
2023/12/11 03:20:28;;;;;;;44.78;4.97;;;;;;;;;;5015919;28;20026;-79
2023/12/11 03:22:54;;;;;;;51.13;5.30;;;;;;;;;;5018396;28;20017;-79
2023/12/11 03:25:20;;;;;;;48.63;4.32;;;;;;;;;;5013692;28;20029;-79
2023/12/11 03:27:46;;;;;;;54.58;5.82;;;;;;;;;;5008632;28;20600;-79
2023/12/11 03:30:12;;;;;;;44.10;4.90;;;;;;;;;;5021738;28;20041;-79
2023/12/11 03:32:38;;;;;;;50.90;5.70;;;;;;;;;;5029556;28;20017;-79
2023/12/11 03:35:05;;;;;;;45.88;5.18;;;;;;;;;;5027991;28;20021;-80
2023/12/11 03:37:31;;;;;;;46.80;4.78;;;;;;;;;;5012185;28;20489;-80
2023/12/11 03:39:57;;;;;;;54.20;5.55;;;;;;;;;;5019534;28;20022;-80
2023/12/11 03:42:23;;;;;;;44.38;5.40;;;;;;;;;;5027413;28;20262;-80
2023/12/11 03:44:49;;;;;;;43.92;4.07;;;;;;;;;;5027858;28;20037;-79
2023/12/11 03:47:15;;;;;;;38.17;4.28;;;;;;;;;;5029331;28;20021;-80
2023/12/11 03:49:41;;;;;;;45.45;4.95;;;;;;;;;;5021191;28;20018;-79
2023/12/11 03:52:07;;;;;;;50.95;5.28;;;;;;;;;;5009615;28;20089;-79
2023/12/11 03:54:33;;;;;;;40.92;4.70;;;;;;;;;;5013378;28;20025;-79
2023/12/11 03:56:59;;;;;;;45.90;4.75;;;;;;;;;;5029240;28;20354;-80
2023/12/11 03:59:25;;;;;;;40.90;5.38;;;;;;;;;;5027913;28;20589;-79
2023/12/11 04:01:52;;;;;;;40.97;4.43;;;;;;;;;;5028839;28;20096;-80
2023/12/11 04:04:18;;;;;;;45.45;5.28;;;;;;;;;;5025447;28;20406;-79
2023/12/11 04:06:44;;;;;;;36.92;4.22;;;;;;;;;;5011462;28;20059;-79
2023/12/11 04:09:10;;;;;;;59.60;6.32;;;;;;;;;;5027628;28;20017;-79
2023/12/11 04:11:36;;;;;;;40.03;4.97;;;;;;;;;;5027701;28;20014;-80
2023/12/11 04:14:02;;;;;;;47.65;5.22;;;;;;;;;;5029361;28;20096;-79
2023/12/11 04:16:28;;;;;;;50.22;5.03;;;;;;;;;;5010040;28;20046;-80
2023/12/11 04:18:54;;;;;;;42.25;3.95;;;;;;;;;;5007839;28;20014;-80
2023/12/11 04:21:21;;;;;;;43.05;5.43;;;;;;;;;;5026335;28;20043;-79
2023/12/11 04:23:47;;;;;;;39.53;4.85;;;;;;;;;;5027416;28;20029;-79
2023/12/11 04:26:13;;;;;;;36.47;3.90;;;;;;;;;;5024422;28;20027;-79
2023/12/11 04:28:39;;;;;;;47.80;4.95;;;;;;;;;;5020425;28;20037;-79
2023/12/11 04:31:05;;;;;;;41.78;5.00;;;;;;;;;;5022191;28;20009;-80
2023/12/11 04:33:32;;;;;;;39.00;4.00;;;;;;;;;;5027285;28;20010;-80
2023/12/11 04:35:59;;;;;;;27.77;3.00;;;;;;;;;;5027356;28;20025;-79
2023/12/11 04:38:25;;;;;;;37.92;4.03;;;;;;;;;;5027214;28;20017;-80
2023/12/11 04:40:51;;;;;;;41.47;4.57;;;;;;;;;;5016971;28;20018;-79
2023/12/11 04:43:17;;;;;;;43.95;3.97;;;;;;;;;;5028406;28;20029;-79
2023/12/11 04:45:43;;;;;;;37.55;3.92;;;;;;;;;;5027138;28;20389;-79
2023/12/11 04:48:09;;;;;;;32.05;4.10;;;;;;;;;;5029510;28;20461;-85
2023/12/11 04:50:35;;;;;;;31.80;3.72;;;;;;;;;;5020208;28;20021;-86
2023/12/11 04:53:01;;;;;;;29.00;4.05;;;;;;;;;;5014302;28;20009;-86
2023/12/11 04:55:27;;;;;;;41.05;4.00;;;;;;;;;;5028862;28;20025;-86
2023/12/11 04:57:53;;;;;;;36.80;4.65;;;;;;;;;;5009562;28;20473;-87
2023/12/11 05:00:20;;;;;;;30.50;4.38;;;;;;;;;;5014801;28;20022;-88
2023/12/11 05:02:46;;;;;;;33.78;4.93;;;;;;;;;;5030464;28;20136;-90
2023/12/11 05:05:14;;;;;;;27.10;3.25;;;;;;;;;;5028854;28;20108;-82
2023/12/11 05:07:40;;;;;;;38.70;3.50;;;;;;;;;;5026984;28;20473;-81
2023/12/11 05:10:07;;;;;;;34.67;4.30;;;;;;;;;;5021419;28;20014;-81
2023/12/11 05:12:33;;;;;;;35.63;3.92;;;;;;;;;;5013247;28;20067;-82
2023/12/11 05:15:01;;;;;;;38.92;4.32;;;;;;;;;;5018909;28;20017;-78
2023/12/11 05:17:27;;;;;;;34.70;3.63;;;;;;;;;;5027950;28;20041;-78
2023/12/11 05:19:53;;;;;;;27.02;3.65;;;;;;;;;;5029630;28;20105;-79
2023/12/11 05:22:19;;;;;;;34.63;3.45;;;;;;;;;;5010992;28;20025;-82
2023/12/11 05:24:47;;;;;;;18.55;2.60;;;;;;;;;;5011642;28;20512;-84
2023/12/11 05:27:13;;;;;;;36.40;3.75;;;;;;;;;;5010787;28;20044;-78
2023/12/11 05:29:39;;;;;;;29.80;2.83;;;;;;;;;;5009903;28;20129;-78
2023/12/11 05:32:06;;;;;;;23.38;3.20;;;;;;;;;;5013649;28;20502;-78
2023/12/11 05:34:32;;;;;;;24.13;3.35;;;;;;;;;;5008343;28;20014;-78
2023/12/11 05:36:58;;;;;;;25.50;2.80;;;;;;;;;;5008869;28;20018;-76
2023/12/11 05:39:24;;;;;;;39.45;3.22;;;;;;;;;;5008012;28;20018;-77
2023/12/11 05:41:50;;;;;;;33.00;4.28;;;;;;;;;;5010694;28;20014;-77
2023/12/11 05:44:16;;;;;;;26.52;3.53;;;;;;;;;;5028795;28;20286;-77
2023/12/11 05:46:42;;;;;;;35.10;4.00;;;;;;;;;;5024212;28;20434;-77
2023/12/11 05:49:08;;;;;;;32.15;3.17;;;;;;;;;;5024957;28;20687;-77
2023/12/11 05:51:34;;;;;;;39.75;4.45;;;;;;;;;;5021178;28;20018;-79
2023/12/11 05:54:00;;;;;;;26.23;3.20;;;;;;;;;;5007075;28;20053;-80
2023/12/11 05:56:26;;;;;;;28.77;3.40;;;;;;;;;;5019217;28;20442;-80
2023/12/11 05:58:54;;;;;;;32.45;3.20;;;;;;;;;;5004025;28;20551;-81
2023/12/11 06:01:20;;;;;;;35.67;3.38;;;;;;;;;;5029022;28;20440;-81
2023/12/11 06:03:46;;;;;;;37.83;4.18;;;;;;;;;;5011093;28;20022;-80
2023/12/11 06:06:15;;;;;;;27.27;3.20;;;;;;;;;;5017441;28;20537;-80
2023/12/11 06:08:42;;;;;;;29.13;2.87;;;;;;;;;;5030676;28;20022;-80
2023/12/11 06:11:08;;;;;;;32.30;4.05;;;;;;;;;;5023863;28;20619;-81
2023/12/11 06:13:34;;;;;;;27.67;2.92;;;;;;;;;;5009462;28;20517;-80
2023/12/11 06:16:00;;;;;;;39.22;3.95;;;;;;;;;;5013293;28;20041;-81
2023/12/11 06:18:26;;;;;;;31.05;3.55;;;;;;;;;;5029202;28;20013;-81
2023/12/11 06:20:52;;;;;;;31.88;3.58;;;;;;;;;;5028220;28;20013;-81
2023/12/11 06:23:18;;;;;;;32.33;3.78;;;;;;;;;;5010280;28;20423;-84
2023/12/11 06:25:44;;;;;;;36.03;3.28;;;;;;;;;;5011517;28;20037;-85
2023/12/11 06:28:10;;;;;;;24.38;2.92;;;;;;;;;;5030561;28;20021;-87
2023/12/11 06:30:36;;;;;;;36.13;7.45;;;;;;;;;;5015191;28;20030;-85
2023/12/11 06:33:02;;;;;;;32.28;5.40;;;;;;;;;;5029846;28;20021;-85
2023/12/11 06:35:28;;;;;;;31.10;3.42;;;;;;;;;;5032125;28;20013;-85
2023/12/11 06:37:54;;;;;;;29.80;3.55;;;;;;;;;;5014395;28;20014;-86
2023/12/11 06:40:20;;;;;;;24.45;3.10;;;;;;;;;;5011338;28;20108;-86
2023/12/11 06:42:46;;;;;;;19.75;3.30;;;;;;;;;;5026948;28;20189;-85
2023/12/11 06:45:12;;;;;;;31.27;3.30;;;;;;;;;;5030692;28;20025;-86
2023/12/11 06:47:38;;;;;;;31.15;3.67;;;;;;;;;;5013796;28;20022;-78
2023/12/11 06:50:04;;;;;;;25.45;3.10;;;;;;;;;;5008361;28;20017;-80
2023/12/11 06:52:30;;;;;;;19.95;3.30;;;;;;;;;;5022589;28;20014;-78
2023/12/11 06:54:57;;;;;;;25.52;3.50;;;;;;;;;;5017068;28;20018;-79
2023/12/11 06:57:23;;;;;;;23.67;2.90;;;;;;;;;;5010892;28;20486;-83
2023/12/11 06:59:49;;;;;;;23.20;3.83;;;;;;;;;;5008790;28;20474;-77
2023/12/11 07:02:15;;;;;;;25.75;4.13;;;;;;;;;;5012412;28;20010;-78
2023/12/11 07:04:41;;;;;;;26.27;3.40;;;;;;;;;;5009691;28;20084;-79
2023/12/11 07:07:07;;;;;;;25.33;2.88;;;;;;;;;;5017152;28;20059;-78
2023/12/11 07:09:34;;;;;;;16.48;2.78;;;;;;;;;;5025137;28;20588;-78
2023/12/11 07:12:00;;;;;;;26.17;3.35;;;;;;;;;;5030469;28;20124;-78
2023/12/11 07:14:26;;;;;;;17.27;2.25;;;;;;;;;;5029225;28;20014;-78
2023/12/11 07:16:52;;;;;;;17.38;2.17;;;;;;;;;;5027319;28;20072;-78
2023/12/11 07:19:21;;;;;;;23.13;2.28;;;;;;;;;;5025973;28;20024;-79
2023/12/11 07:21:47;;;;;;;16.08;2.13;;;;;;;;;;5010149;28;20093;-78
2023/12/11 07:24:13;;;;;;;16.95;2.80;;;;;;;;;;5006546;28;20022;-78
2023/12/11 07:26:39;;;;;;;17.50;1.95;;;;;;;;;;5010521;28;20022;-78
2023/12/11 07:29:07;;;;;;;14.95;2.75;;;;;;;;;;5026735;28;20013;-78
2023/12/11 07:31:34;;;;;;;17.10;2.10;;;;;;;;;;5017877;28;20014;-78
2023/12/11 07:34:00;;;;;;;20.85;3.00;;;;;;;;;;5017676;28;20022;-78
2023/12/11 07:36:26;;;;;;;22.80;2.80;;;;;;;;;;4990630;28;20478;-78
2023/12/11 07:38:52;;;;;;;19.70;2.17;;;;;;;;;;5026147;28;20103;-78
2023/12/11 07:41:22;;;;;;;24.70;2.80;;;;;;;;;;5005692;28;20029;-78
2023/12/11 07:43:48;;;;;;;16.25;1.88;;;;;;;;;;5024645;28;20072;-78
2023/12/11 07:46:18;;;;;;;18.13;2.25;;;;;;;;;;5025950;28;20028;-78
2023/12/11 07:48:44;;;;;;;19.40;2.33;;;;;;;;;;5009392;28;20014;-78
2023/12/11 07:51:20;;;;;;;23.25;2.70;;;;;;;;;;5005818;28;20238;-79
2023/12/11 07:53:46;;;;;;;13.65;2.25;;;;;;;;;;5025476;28;20163;-78
2023/12/11 07:56:21;;;;;;;28.73;3.50;;;;;;;;;;5026262;28;20028;-78
2023/12/11 07:58:48;;;;;;;22.70;3.22;;;;;;;;;;5009547;28;20018;-78
2023/12/11 08:01:14;;;;;;;22.88;2.78;;;;;;;;;;5006253;28;20068;-78
2023/12/11 08:03:40;;;;;;;26.00;2.88;;;;;;;;;;5022409;28;20018;-78
2023/12/11 08:06:08;;;;;;;23.10;2.90;;;;;;;;;;5026053;28;20461;-78
2023/12/11 08:08:40;;;;;;;22.92;3.80;;;;;;;;;;5012103;28;20531;-78
2023/12/11 08:11:06;;;;;;;33.35;3.80;;;;;;;;;;5006580;28;20144;-78
2023/12/11 08:13:32;;;;;;;27.83;3.00;;;;;;;;;;5020455;28;20014;-78
2023/12/11 08:15:58;;;;;;;25.67;3.00;;;;;;;;;;5027464;28;20038;-79
2023/12/11 08:18:24;;;;;;;16.05;2.28;;;;;;;;;;5013716;28;20022;-78
2023/12/11 08:20:50;;;;;;;29.00;3.20;;;;;;;;;;5008373;28;20477;-78
2023/12/11 08:23:16;;;;;;;23.15;2.50;;;;;;;;;;5018804;28;20074;-78
2023/12/11 08:25:42;;;;;;;18.48;3.58;;;;;;;;;;5026421;28;20102;-78
2023/12/11 08:28:08;;;;;;;20.40;2.53;;;;;;;;;;5017726;28;20084;-78
2023/12/11 08:30:34;;;;;;;30.75;2.95;;;;;;;;;;5007987;28;20517;-78
2023/12/11 08:33:00;;;;;;;27.00;3.38;;;;;;;;;;5014427;28;20017;-78
2023/12/11 08:35:26;;;;;;;20.30;2.72;;;;;;;;;;5027483;28;20018;-78
2023/12/11 08:37:52;;;;;;;23.73;2.50;;;;;;;;;;5021564;28;20064;-78
2023/12/11 08:40:20;;;;;;;14.65;1.95;;;;;;;;;;5006441;28;20025;-78
2023/12/11 08:42:46;;;;;;;23.50;2.50;;;;;;;;;;5011740;28;20101;-78
2023/12/11 08:45:12;;;;;;;13.25;2.00;;;;;;;;;;5027476;28;20028;-78
2023/12/11 08:47:41;;;;;;;23.92;2.08;;;;;;;;;;5022366;28;20466;-79
2023/12/11 08:50:11;;;;;;;12.45;2.35;;;;;;;;;;5007870;28;20137;-78
2023/12/11 08:52:38;;;;;;;16.70;1.88;;;;;;;;;;5010718;28;20479;-78
2023/12/11 08:55:04;;;;;;;19.77;2.00;;;;;;;;;;5030427;28;20364;-78
2023/12/11 08:57:30;;;;;;;18.25;2.70;;;;;;;;;;5028475;28;20017;-79
2023/12/11 08:59:57;;;;;;;18.55;2.05;;;;;;;;;;5010418;28;20132;-78
2023/12/11 09:02:23;;;;;;;19.13;1.80;;;;;;;;;;5011753;28;20046;-78
2023/12/11 09:04:49;;;;;;;16.38;1.80;;;;;;;;;;5029905;28;20029;-78
2023/12/11 09:07:15;;;;;;;23.13;2.65;;;;;;;;;;5031358;28;20039;-78
2023/12/11 09:09:41;;;;;;;19.58;2.67;;;;;;;;;;5011371;28;20022;-79
2023/12/11 09:12:08;;;;;;;12.65;2.20;;;;;;;;;;5011549;28;20407;-78
2023/12/11 09:14:34;;;;;;;23.85;2.63;;;;;;;;;;5026499;28;20059;-78
2023/12/11 09:17:00;;;;;;;23.98;3.50;;;;;;;;;;5029799;28;20072;-78
2023/12/11 09:19:27;;;;;;;22.58;2.85;;;;;;;;;;5014396;28;20104;-78
2023/12/11 09:21:53;;;;;;;17.80;2.25;;;;;;;;;;5010045;28;20068;-78
2023/12/11 09:24:19;;;;;;;15.75;1.85;;;;;;;;;;5024189;28;20132;-78
2023/12/11 09:26:45;;;;;;;20.95;2.58;;;;;;;;;;5029738;28;20108;-78
2023/12/11 09:29:11;;;;;;;16.48;2.22;;;;;;;;;;5019173;28;20018;-78
2023/12/11 09:31:38;;;;;;;25.25;3.38;;;;;;;;;;5034724;28;20021;-78
2023/12/11 09:34:04;;;;;;;23.90;3.83;;;;;;;;;;5025809;28;20068;-78
2023/12/11 09:36:30;;;;;;;23.33;2.78;;;;;;;;;;5011756;28;20333;-79
2023/12/11 09:38:58;;;;;;;20.40;2.50;;;;;;;;;;5019159;28;20389;-78
2023/12/11 09:41:24;;;;;;;25.73;2.88;;;;;;;;;;5014173;28;20598;-78
2023/12/11 09:43:50;;;;;;;11.35;1.75;;;;;;;;;;5015977;28;20025;-79
2023/12/11 09:46:18;;;;;;;17.75;2.45;;;;;;;;;;5031601;28;20032;-78
2023/12/11 09:48:44;;;;;;;18.02;2.72;;;;;;;;;;5018699;28;20018;-78
2023/12/11 09:51:12;;;;;;;20.42;2.63;;;;;;;;;;5018688;28;20026;-78
2023/12/11 09:53:39;;;;;;;21.98;3.55;;;;;;;;;;5016770;28;20022;-78
2023/12/11 09:56:05;;;;;;;15.45;1.70;;;;;;;;;;5011359;28;20075;-79
2023/12/11 09:58:31;;;;;;;16.08;2.50;;;;;;;;;;4999340;28;20337;-78
2023/12/11 10:01:00;;;;;;;17.95;2.42;;;;;;;;;;5004129;28;21389;-78
2023/12/11 10:03:27;;;;;;;17.73;2.25;;;;;;;;;;5001613;28;20105;-79
2023/12/11 10:05:56;;;;;;;17.58;1.88;;;;;;;;;;5030473;28;20025;-78
2023/12/11 10:08:22;;;;;;;18.20;1.95;;;;;;;;;;5029818;28;20394;-79
2023/12/11 10:10:48;;;;;;;13.25;1.95;;;;;;;;;;5009220;28;20474;-78
2023/12/11 10:13:23;;;;;;;10.38;1.70;;;;;;;;;;5009638;28;20125;-79
2023/12/11 10:15:49;;;;;;;14.50;1.70;;;;;;;;;;5029449;28;20092;-78
2023/12/11 10:18:15;;;;;;;14.95;2.05;;;;;;;;;;5029955;28;20055;-79
2023/12/11 10:20:42;;;;;;;16.73;2.20;;;;;;;;;;5013124;28;20482;-78
2023/12/11 10:23:15;;;;;;;6.93;1.55;;;;;;;;;;5009808;28;20052;-78
2023/12/11 10:25:42;;;;;;;11.35;1.70;;;;;;;;;;4999885;28;20033;-78
2023/12/11 10:28:09;;;;;;;10.25;1.63;;;;;;;;;;5011003;28;20229;-78
2023/12/11 10:30:50;;;;;;;13.25;1.60;;;;;;;;;;5020522;28;20440;-78
2023/12/11 10:33:16;;;;;;;;;;;;;;;;;;5010047;28;20073;-77
2023/12/11 10:35:42;;;;;;;16.08;2.25;;;;;;;;;;5040501;28;19909;-78
2023/12/11 10:38:08;;;;;;;17.08;2.45;;;;;;;;;;5015052;28;20032;-78
2023/12/11 10:40:41;;;;;;;13.88;2.92;;;;;;;;;;5008988;28;20029;-78
2023/12/11 10:43:07;;;;;;;11.88;1.80;;;;;;;;;;5009507;28;20109;-79
2023/12/11 10:45:33;;;;;;;12.20;2.28;;;;;;;;;;5022010;28;20223;-78
2023/12/11 10:48:00;;;;;;;18.63;3.88;;;;;;;;;;5024659;28;20064;-79
2023/12/11 10:50:26;;;;;;;22.85;3.55;;;;;;;;;;5009747;28;20018;-78
2023/12/11 10:52:52;;;;;;;21.83;3.15;;;;;;;;;;5008441;28;20083;-78
2023/12/11 10:55:18;;;;;;;29.08;3.85;;;;;;;;;;5012915;28;20112;-78
2023/12/11 10:57:45;;;;;;;20.15;3.22;;;;;;;;;;5008437;28;20566;-78
2023/12/11 11:00:13;;;;;;;27.98;4.70;;;;;;;;;;5008769;28;20112;-79
2023/12/11 11:02:41;;;;;;;23.33;3.88;;;;;;;;;;5007691;28;20036;-79
2023/12/11 11:05:08;;;;;;;20.58;2.85;;;;;;;;;;5010814;28;20041;-79
2023/12/11 11:07:35;;;;;;;30.17;3.13;;;;;;;;;;5008215;28;20026;-78
2023/12/11 11:10:04;;;;;;;12.23;2.05;;;;;;;;;;5011488;28;20113;-78
2023/12/11 11:12:30;;;;;;;19.67;3.00;;;;;;;;;;5008405;28;20010;-78
2023/12/11 11:14:56;;;;;;;16.23;2.13;;;;;;;;;;5009488;28;20052;-79
2023/12/11 11:17:22;;;;;;;12.15;1.55;;;;;;;;;;5020420;28;20042;-79
2023/12/11 11:20:10;;;;;;;7.50;1.55;;;;;;;;;;5010144;28;20338;-79
2023/12/11 11:22:36;;;;;;;11.30;1.30;;;;;;;;;;5017309;28;20115;-78
2023/12/11 11:25:21;;;;;;;13.25;1.40;;;;;;;;;;5006700;28;20117;-79
2023/12/11 11:27:47;;;;;;;3.97;1.10;;;;;;;;;;5022442;28;20021;-79
2023/12/11 11:30:33;;;;;;;9.60;2.13;;;;;;;;;;5011010;28;20037;-79
2023/12/11 11:33:00;;;;;;;7.82;1.30;;;;;;;;;;5009017;28;20072;-78
2023/12/11 11:35:46;;;;;;;7.38;0.90;;;;;;;;;;5013345;28;20390;-78
2023/12/11 11:38:12;;;;;;;11.05;1.13;;;;;;;;;;5027819;28;20104;-79
2023/12/11 11:40:39;;;;;;;7.18;1.00;;;;;;;;;;5022156;28;20096;-79
2023/12/11 11:43:08;;;;;;;7.65;1.55;;;;;;;;;;5008239;28;20507;-79
2023/12/11 11:45:34;;;;;;;12.88;1.58;;;;;;;;;;5006025;28;21167;-79
2023/12/11 11:48:00;;;;;;;8.48;1.02;;;;;;;;;;4991255;28;20476;-78
2023/12/11 11:50:26;;;;;;;8.77;0.90;;;;;;;;;;4995635;28;20017;-78
2023/12/11 11:53:08;;;;;;;7.85;1.40;;;;;;;;;;5027730;28;20101;-77
2023/12/11 11:55:36;;;;;;;6.43;0.68;;;;;;;;;;5024069;28;20025;-77
2023/12/11 11:58:11;;;;;;;7.97;1.13;;;;;;;;;;5009882;28;20030;-77
2023/12/11 12:00:38;;;;;;;5.82;0.50;;;;;;;;;;5036085;28;20029;-77
2023/12/11 12:03:04;;;;;;;6.90;0.77;;;;;;;;;;5007717;28;20013;-77
2023/12/11 12:05:34;;;;;;;5.63;0.73;;;;;;;;;;5009428;28;20117;-77
2023/12/11 12:08:00;;;;;;;3.70;0.73;;;;;;;;;;5027407;28;20055;-77
2023/12/11 12:10:26;;;;;;;6.25;0.80;;;;;;;;;;5026573;28;20017;-77
2023/12/11 12:13:03;;;;;;;7.20;0.65;;;;;;;;;;5007776;28;20489;-77
2023/12/11 12:15:30;;;;;;;4.03;0.63;;;;;;;;;;5008759;28;20014;-77
2023/12/11 12:18:09;;;;;;;4.28;0.60;;;;;;;;;;5026239;28;20533;-78
2023/12/11 12:20:35;;;;;;;7.03;0.88;;;;;;;;;;5027169;28;20029;-77
2023/12/11 12:23:03;;;;;;;6.85;0.75;;;;;;;;;;5008204;28;20057;-77
2023/12/11 12:25:29;;;;;;;8.60;0.90;;;;;;;;;;5007224;28;20446;-77
2023/12/11 12:27:57;;;;;;;5.07;0.90;;;;;;;;;;5025523;28;20556;-78
2023/12/11 12:30:23;;;;;;;7.65;1.05;;;;;;;;;;5026927;28;20014;-78
2023/12/11 12:32:50;;;;;;;11.95;0.80;;;;;;;;;;5028497;28;20485;-78
2023/12/11 12:35:20;;;;;;;5.63;0.73;;;;;;;;;;5026880;28;20120;-78
2023/12/11 12:37:47;;;;;;;10.40;1.08;;;;;;;;;;5012889;28;20017;-78
2023/12/11 12:40:13;;;;;;;5.63;0.73;;;;;;;;;;5007287;28;20033;-78
2023/12/11 12:42:40;;;;;;;6.82;0.80;;;;;;;;;;5022344;28;20029;-78
2023/12/11 12:45:06;;;;;;;4.43;1.05;;;;;;;;;;5028117;28;20025;-78
2023/12/11 12:47:32;;;;;;;6.43;1.30;;;;;;;;;;5013886;28;20107;-78
2023/12/11 12:49:59;;;;;;;6.68;0.75;;;;;;;;;;5007203;28;20022;-82
2023/12/11 12:52:25;;;;;;;4.63;0.65;;;;;;;;;;5015350;28;20017;-79
2023/12/11 12:54:54;;;;;;;5.32;0.70;;;;;;;;;;5027295;28;20068;-78
2023/12/11 12:57:20;;;;;;;3.38;0.50;;;;;;;;;;5022545;28;20528;-75
2023/12/11 12:59:46;;;;;;;2.67;0.70;;;;;;;;;;5027806;28;20092;-78
2023/12/11 13:02:13;;;;;;;6.13;0.63;;;;;;;;;;5021202;28;20014;-78
2023/12/11 13:05:11;;;;;;;8.98;0.88;;;;;;;;;;5020410;28;20076;-78
2023/12/11 13:07:37;;;;;;;5.03;0.80;;;;;;;;;;4993514;28;20032;-78
2023/12/11 13:10:13;;;;;;;2.42;0.57;;;;;;;;;;5006316;28;20112;-78
2023/12/11 13:12:39;;;;;;;1.83;0.55;;;;;;;;;;5008582;28;20536;-78
2023/12/11 13:15:09;;;;;;;6.78;0.80;;;;;;;;;;5006193;28;20390;-78
2023/12/11 13:17:35;;;;;;;6.07;0.80;;;;;;;;;;5009346;28;20046;-78
2023/12/11 13:20:03;;;;;;;4.32;0.80;;;;;;;;;;5007581;28;20125;-77
2023/12/11 13:22:29;;;;;;;5.40;0.85;;;;;;;;;;5012592;28;20022;-78
2023/12/11 13:24:56;;;;;;;3.78;0.50;;;;;;;;;;5026478;28;20025;-78
2023/12/11 13:27:25;;;;;;;4.30;0.50;;;;;;;;;;5022011;28;20514;-78
2023/12/11 13:29:51;;;;;;;8.73;0.88;;;;;;;;;;5008016;28;20022;-78
2023/12/11 13:32:18;;;;;;;8.77;2.15;;;;;;;;;;5011240;28;20018;-78
2023/12/11 13:34:44;;;;;;;6.70;0.80;;;;;;;;;;5026254;28;20071;-78
2023/12/11 13:37:10;;;;;;;7.10;1.08;;;;;;;;;;5024192;28;20021;-78
2023/12/11 13:39:36;;;;;;;5.80;0.70;;;;;;;;;;5007706;28;20053;-78
2023/12/11 13:42:03;;;;;;;6.28;0.73;;;;;;;;;;5010723;28;20549;-78
2023/12/11 13:44:29;;;;;;;5.72;0.93;;;;;;;;;;5030035;28;20026;-78
2023/12/11 13:46:55;;;;;;;5.07;1.13;;;;;;;;;;5030041;28;20014;-78
2023/12/11 13:49:21;;;;;;;11.98;1.27;;;;;;;;;;5010898;28;20030;-78
2023/12/11 13:51:47;;;;;;;6.35;0.90;;;;;;;;;;5010140;28;20543;-78
2023/12/11 13:54:13;;;;;;;10.35;1.10;;;;;;;;;;5027062;28;20018;-78
2023/12/11 13:56:39;;;;;;;6.78;1.08;;;;;;;;;;5031040;28;20022;-78
2023/12/11 13:59:05;;;;;;;7.72;0.90;;;;;;;;;;5015362;28;20044;-78
2023/12/11 14:01:31;;;;;;;8.68;1.10;;;;;;;;;;5011537;28;20096;-78
2023/12/11 14:03:57;;;;;;;6.65;1.55;;;;;;;;;;5023676;28;20428;-78
2023/12/11 14:06:23;;;;;;;12.23;1.20;;;;;;;;;;5029560;28;20075;-78
2023/12/11 14:08:49;;;;;;;6.40;0.80;;;;;;;;;;5019286;28;20037;-78
2023/12/11 14:11:15;;;;;;;5.30;0.73;;;;;;;;;;5009755;28;20033;-78
2023/12/11 14:13:41;;;;;;;11.00;1.45;;;;;;;;;;5018824;28;20412;-77
2023/12/11 14:16:08;;;;;;;6.28;1.02;;;;;;;;;;5029353;28;20516;-78
2023/12/11 14:18:35;;;;;;;9.40;1.08;;;;;;;;;;5023143;28;20025;-78
2023/12/11 14:21:04;;;;;;;7.60;0.75;;;;;;;;;;5010828;28;20029;-78
2023/12/11 14:23:30;;;;;;;8.52;1.10;;;;;;;;;;5015883;28;20021;-78
2023/12/11 14:25:56;;;;;;;3.35;0.90;;;;;;;;;;5025484;28;20389;-78
2023/12/11 14:28:22;;;;;;;7.70;0.95;;;;;;;;;;5030153;28;20021;-78
2023/12/11 14:30:50;;;;;;;8.77;1.45;;;;;;;;;;5027869;28;20017;-78